Cocoa Beach, FL

17:10 EDT le 20 octobre 2014 (GMT -0400)
Beachwatch | Change Station
CLOSE
Current Station
Stations météorologiques personnelles
Location: Cocoa Beach, FL
Altitude: 2 ft
Stations météo à proximité

Alt. 2 ft 28.32 °N, 80.62 °W | Updated 12 minutes ago

Ciel dégagé
Ciel dégagé
81.3 ° F
Paraît 84 ° F
N
6.0
Vent Variable Vent de ESE
Gusts 9.0 mph

Aujourd'hui
Haut(e) -- | Bas -- ° F
--% Risque de précip.
Hier
Haut(e) -- | Bas -- ° F
Precip. -- pouce
7:26 AM 6:47 PM
Lune descendante, 9% visible
Pression 29.98 pouce
Visibilité 10.0 Miles terrestres
Nuages Ciel dégagé
indice de chaleur 84 ° F
Point de rosée 66 ° F
Humidité 61%
Précipitations 0.00 pouce
Profondeur de la couche neigeuse Non disponible.
UV 2 sur 12
Pollen 5.60 sur 12
Qualité de l'air Non disponible.
Flu Activity Local Activity
METAR KCOF 202058Z AUTO 08007KT 10SM CLR 27/19 A2996 RMK AO2 DZE2002 SLP150 P0000 60000 T02730190 57013 $

More Conditions Fewer Conditions

Pression 29.98 pouce
Visibilité 10.0 Miles terrestres
Nuages Ciel dégagé
indice de chaleur 84 ° F
Point de rosée 66 ° F
Humidité 61%
Précipitations 0.00 pouce
Profondeur de la couche neigeuse Non disponible.
UV 2 sur 12
Pollen 5.60 sur 12
Qualité de l'air Non disponible.
Flu Activity Local Activity
METAR KCOF 202058Z AUTO 08007KT 10SM CLR 27/19 A2996 RMK AO2 DZE2002 SLP150 P0000 60000 T02730190 57013 $

More Conditions Fewer Conditions

Nowcast | as of 2:38 PM EDT on October 20, 2014

Southwest winds above the surface will push showers away from east central Florida as well as the nearshore waters. Highs will be in the low and mid 80s. Additional details...including graphics are available online at: http://www.Srh.NOAA.Gov/mlb/blog.Php

×

10-Day Weather Forecast

Almanac

Astronomie

Oct. 20, 2014 Lever Coucher
Temps réel 07:26 EDT 18:47 EDT
Crépuscule civil 07:02 EDT 19:11 EDT
Crépuscule nautique 06:34 EDT 19:39 EDT
Crépuscule astronomique 06:07 EDT 20:06 EDT
Lune 04:28 EDT 16:56 EDT
Durée de lumière visible 12h 09m
Longueur du jour
11h 21m
Lune descendante, 9% of the Moon is Illuminated
Aujourd'hui
Lune descendante
Oct 23
Nouveau
Oct 30
Premier quartier
Nov 6
Pleine lune
Nov 14
Dernier quartier

Extrêmes aujourd'hui

State Highs State Lows

Community

WunderPhotos

Upload Photos

1,763,510 Photos téléchargées !

WunderBlogs® & News

By Dr. Jeff Masters
Director of Meteorology, Weather Underground
By Kari Strenfel
Meteorologist, Weather Underground
By Christopher C. Burt
Weather Historian, Weather Underground
October 20, 2014
October 20, 2014
October 20, 2014

Nearby

Épaisseur de neige

Station Depth Altitude
Pas de nouvelles chutes de neige

Activité sismique

Ville Distance Mag. Time & Date
No recent earthquake activity has been reported nearby.
Minimum magnitude displayed is 2.5.

Températures des eaux côtières

Lieu Température
Trident Pier, FL 81.0 ° F
Fort Myers, FL 82.0 ° F
Lake Worth, FL 82.9 ° F

Stations météo à proximité